createdAt,value
2022-08-05T00:02:53.771Z,20.77
2022-08-05T00:12:57.044Z,22.69
2022-08-05T00:23:02.567Z,21.84
2022-08-05T00:34:53.691Z,19.44
2022-08-05T00:43:47.240Z,20.53
2022-08-05T00:54:02.248Z,22.88
2022-08-05T01:04:13.686Z,21.98
2022-08-05T01:14:27.839Z,19.40
2022-08-05T01:24:47.933Z,20.49
2022-08-05T01:35:03.879Z,22.62
2022-08-05T01:45:15.639Z,21.58
2022-08-05T01:55:22.756Z,19.09
2022-08-05T02:05:30.628Z,20.02
2022-08-05T02:15:46.879Z,22.29
2022-08-05T02:25:51.183Z,21.35
2022-08-05T02:36:01.121Z,18.85
2022-08-05T02:46:04.720Z,19.85
2022-08-05T02:56:09.669Z,22.16
2022-08-05T03:06:55.754Z,21.07
2022-08-05T03:16:43.042Z,18.68
2022-08-05T03:26:49.314Z,19.86
2022-08-05T03:36:51.529Z,22.27
2022-08-05T03:46:54.496Z,21.48
2022-08-05T03:56:59.859Z,19.28
2022-08-05T04:07:03.973Z,20.75
2022-08-05T04:17:08.355Z,24.59
2022-08-05T04:27:13.923Z,25.94
2022-08-05T04:37:17.424Z,24.62
2022-08-05T04:47:20.182Z,24.43
2022-08-05T04:57:22.479Z,24.15
2022-08-05T05:07:35.375Z,26.13
2022-08-05T05:17:55.508Z,31.17
2022-08-05T05:27:59.442Z,35.19
2022-08-05T05:38:03.476Z,37.87
2022-08-05T05:48:08.626Z,41.09
2022-08-05T05:58:10.875Z,44.04
2022-08-05T06:08:13.454Z,45.86
2022-08-05T06:18:15.504Z,48.31
2022-08-05T06:28:21.107Z,50.66
2022-08-05T06:38:36.297Z,52.40
2022-08-05T06:48:55.379Z,53.36
2022-08-05T06:59:00.827Z,55.00
2022-08-05T07:09:04.724Z,56.63
2022-08-05T07:19:07.023Z,57.68
2022-08-05T07:29:10.114Z,57.84
2022-08-05T07:39:50.396Z,59.75
2022-08-05T07:49:34.300Z,61.08
2022-08-05T07:59:46.890Z,61.31
2022-08-05T08:09:53.039Z,62.62
2022-08-05T08:20:22.991Z,62.95
2022-08-05T08:30:32.644Z,64.25
2022-08-05T08:40:38.857Z,65.47
2022-08-05T08:51:22.246Z,66.22
2022-08-05T09:01:07.630Z,66.39
2022-08-05T09:11:16.074Z,67.19
2022-08-05T09:22:22.942Z,68.34
2022-08-05T09:32:41.866Z,69.43
2022-08-05T09:42:08.446Z,70.46
2022-08-05T09:52:24.016Z,70.64
2022-08-05T10:13:17.780Z,70.28
2022-08-05T10:23:55.326Z,67.92
2022-08-05T10:33:45.960Z,65.40
2022-08-05T10:44:01.679Z,61.08
2022-08-05T10:54:28.282Z,51.82
2022-08-05T11:04:34.344Z,44.74
2022-08-05T11:26:05.273Z,37.61
2022-08-05T11:36:07.672Z,35.62
2022-08-05T11:46:16.001Z,34.21
2022-08-05T11:56:50.505Z,33.34
2022-08-05T12:06:58.703Z,32.74
2022-08-05T12:17:57.862Z,32.32
2022-08-05T12:27:33.777Z,32.03
2022-08-05T12:37:37.099Z,31.93
2022-08-05T12:48:27.716Z,31.81
2022-08-05T12:58:48.496Z,31.57
2022-08-05T13:08:55.014Z,31.48
2022-08-05T13:18:58.586Z,31.43
2022-08-05T13:29:01.171Z,31.35
2022-08-05T13:39:08.475Z,31.26
2022-08-05T13:49:26.964Z,31.15
2022-08-05T13:59:30.693Z,31.06
2022-08-05T14:09:34.605Z,30.94
2022-08-05T14:19:54.103Z,30.82
2022-08-05T14:29:58.246Z,30.75
2022-08-05T14:40:01.414Z,30.68
2022-08-05T14:50:18.155Z,30.62
2022-08-05T15:00:21.722Z,30.52
2022-08-05T15:10:30.830Z,30.44
2022-08-05T15:20:38.969Z,30.39
2022-08-05T15:30:41.868Z,30.26
2022-08-05T15:41:20.310Z,30.07
2022-08-05T15:52:13.487Z,29.90
2022-08-05T16:01:53.576Z,29.78
2022-08-05T16:11:58.570Z,29.67
2022-08-05T16:22:03.002Z,29.48
2022-08-05T16:32:09.701Z,29.29
2022-08-05T16:42:17.551Z,29.15
2022-08-05T16:52:21.575Z,29.01
2022-08-05T17:02:24.313Z,28.77
2022-08-05T17:12:50.257Z,28.47
2022-08-05T17:22:55.413Z,28.15
2022-08-05T17:32:57.945Z,27.78
2022-08-05T17:43:02.348Z,27.37
2022-08-05T17:53:09.900Z,26.91
2022-08-05T18:03:56.327Z,26.44
2022-08-05T18:13:43.955Z,25.94
2022-08-05T18:23:47.007Z,25.44
2022-08-05T18:33:53.970Z,27.15
2022-08-05T18:44:05.850Z,27.73
2022-08-05T18:54:09.061Z,25.93
2022-08-05T19:04:12.332Z,26.96
2022-08-05T19:14:53.379Z,28.94
2022-08-05T19:24:37.758Z,27.99
2022-08-05T19:34:57.882Z,25.75
2022-08-05T19:45:02.154Z,26.47
2022-08-05T19:56:11.445Z,28.32
2022-08-05T20:05:49.765Z,27.40
2022-08-05T20:15:56.118Z,25.12
2022-08-05T20:26:00.018Z,25.91
2022-08-05T20:36:02.350Z,27.62
2022-08-05T20:46:07.003Z,26.70
2022-08-05T20:56:11.448Z,24.50
2022-08-05T21:06:27.673Z,25.17
2022-08-05T21:16:33.092Z,27.05
2022-08-05T21:26:37.176Z,26.16
2022-08-05T21:36:42.345Z,24.03
2022-08-05T21:46:48.625Z,24.96
2022-08-05T21:56:51.403Z,25.33
2022-08-05T22:06:54.280Z,23.45
2022-08-05T22:17:03.074Z,24.48
2022-08-05T22:27:25.831Z,26.62
2022-08-05T22:37:59.279Z,25.73
2022-08-05T22:48:01.952Z,23.52
2022-08-05T22:58:04.400Z,24.26
2022-08-05T23:08:07.225Z,26.33
2022-08-05T23:18:15.859Z,25.44
2022-08-05T23:28:18.154Z,23.15
2022-08-05T23:38:20.669Z,23.88
2022-08-05T23:48:22.528Z,25.85
2022-08-05T23:58:31.758Z,26.46
